<?xml version="1.0" encoding="UTF-8" standalone="no" ?>
<gpx xmlns="http://www.topografix.com/GPX/1/1" xmlns:xsi="http://www.w3.org/2001/XMLSchema-instance" xsi:schemaLocation="http://www.topografix.com/GPX/1/1 http://www.topografix.com/GPX/1/1/gpx.xsd" version="1.1" creator="VisuGPX - https://www.visugpx.com">
  <metadata>
    <name>Rocher des Potets   25 Bosses</name>
    <desc><![CDATA[Rocher des Potets   25 Bosses]]></desc>
  </metadata>
  <trk>
    <name><![CDATA[16-05-2011 14-14-28-MNT]]></name>
    <trkseg>
      <trkpt lat="48.37265" lon="2.51047">
        <ele>68.758621</ele>
        <time>2011-05-16T14:14:31Z</time>
      </trkpt>
      <trkpt lat="48.37277" lon="2.51058">
        <ele>68.753601</ele>
        <time>2011-05-16T14:15:11Z</time>
      </trkpt>
      <trkpt lat="48.37278" lon="2.51061">
        <ele>68.792747</ele>
        <time>2011-05-16T14:15:14Z</time>
      </trkpt>
      <trkpt lat="48.37286" lon="2.51086">
        <ele>69.055923</ele>
        <time>2011-05-16T14:15:31Z</time>
      </trkpt>
      <trkpt lat="48.37296" lon="2.511">
        <ele>69.115128</ele>
        <time>2011-05-16T14:15:55Z</time>
      </trkpt>
      <trkpt lat="48.3731" lon="2.51113">
        <ele>69.048935</ele>
        <time>2011-05-16T14:16:12Z</time>
      </trkpt>
      <trkpt lat="48.37325" lon="2.51125">
        <ele>69.299805</ele>
        <time>2011-05-16T14:16:29Z</time>
      </trkpt>
      <trkpt lat="48.37338" lon="2.5113">
        <ele>69.316177</ele>
        <time>2011-05-16T14:16:41Z</time>
      </trkpt>
      <trkpt lat="48.37353" lon="2.5114">
        <ele>69.456001</ele>
        <time>2011-05-16T14:16:58Z</time>
      </trkpt>
      <trkpt lat="48.37367" lon="2.51143">
        <ele>69.267502</ele>
        <time>2011-05-16T14:17:11Z</time>
      </trkpt>
      <trkpt lat="48.3738" lon="2.51148">
        <ele>69.097504</ele>
        <time>2011-05-16T14:17:24Z</time>
      </trkpt>
      <trkpt lat="48.37397" lon="2.51155">
        <ele>68.955002</ele>
        <time>2011-05-16T14:17:41Z</time>
      </trkpt>
      <trkpt lat="48.37415" lon="2.5116">
        <ele>68.689278</ele>
        <time>2011-05-16T14:17:58Z</time>
      </trkpt>
      <trkpt lat="48.37428" lon="2.51164">
        <ele>68.538765</ele>
        <time>2011-05-16T14:18:11Z</time>
      </trkpt>
      <trkpt lat="48.37442" lon="2.51175">
        <ele>68.545189</ele>
        <time>2011-05-16T14:18:23Z</time>
      </trkpt>
      <trkpt lat="48.37455" lon="2.51181">
        <ele>68.343948</ele>
        <time>2011-05-16T14:18:36Z</time>
      </trkpt>
      <trkpt lat="48.37472" lon="2.51188">
        <ele>68.030228</ele>
        <time>2011-05-16T14:18:53Z</time>
      </trkpt>
      <trkpt lat="48.37487" lon="2.51199">
        <ele>67.731598</ele>
        <time>2011-05-16T14:19:12Z</time>
      </trkpt>
      <trkpt lat="48.37499" lon="2.51209">
        <ele>67.559998</ele>
        <time>2011-05-16T14:19:25Z</time>
      </trkpt>
      <trkpt lat="48.37512" lon="2.51218">
        <ele>67.392502</ele>
        <time>2011-05-16T14:19:38Z</time>
      </trkpt>
      <trkpt lat="48.37524" lon="2.51229">
        <ele>67.278877</ele>
        <time>2011-05-16T14:19:51Z</time>
      </trkpt>
      <trkpt lat="48.37533" lon="2.51245">
        <ele>67.358185</ele>
        <time>2011-05-16T14:20:02Z</time>
      </trkpt>
      <trkpt lat="48.37545" lon="2.51262">
        <ele>67.296249</ele>
        <time>2011-05-16T14:20:19Z</time>
      </trkpt>
      <trkpt lat="48.37557" lon="2.51275">
        <ele>67.230003</ele>
        <time>2011-05-16T14:20:32Z</time>
      </trkpt>
      <trkpt lat="48.37571" lon="2.51292">
        <ele>67.173752</ele>
        <time>2011-05-16T14:20:49Z</time>
      </trkpt>
      <trkpt lat="48.37584" lon="2.51308">
        <ele>67.177498</ele>
        <time>2011-05-16T14:21:07Z</time>
      </trkpt>
      <trkpt lat="48.37595" lon="2.51323">
        <ele>67.400002</ele>
        <time>2011-05-16T14:21:18Z</time>
      </trkpt>
      <trkpt lat="48.37608" lon="2.51341">
        <ele>67.666252</ele>
        <time>2011-05-16T14:21:35Z</time>
      </trkpt>
      <trkpt lat="48.3762" lon="2.51356">
        <ele>67.887497</ele>
        <time>2011-05-16T14:21:52Z</time>
      </trkpt>
      <trkpt lat="48.37629" lon="2.51373">
        <ele>68</ele>
        <time>2011-05-16T14:22:05Z</time>
      </trkpt>
      <trkpt lat="48.37638" lon="2.51389">
        <ele>68</ele>
        <time>2011-05-16T14:22:17Z</time>
      </trkpt>
      <trkpt lat="48.37647" lon="2.5141">
        <ele>68</ele>
        <time>2011-05-16T14:22:30Z</time>
      </trkpt>
      <trkpt lat="48.37656" lon="2.51428">
        <ele>68</ele>
        <time>2011-05-16T14:22:42Z</time>
      </trkpt>
      <trkpt lat="48.37665" lon="2.51446">
        <ele>68</ele>
        <time>2011-05-16T14:22:54Z</time>
      </trkpt>
      <trkpt lat="48.37674" lon="2.51463">
        <ele>68.005074</ele>
        <time>2011-05-16T14:23:06Z</time>
      </trkpt>
      <trkpt lat="48.37688" lon="2.51487">
        <ele>67.764122</ele>
        <time>2011-05-16T14:23:24Z</time>
      </trkpt>
      <trkpt lat="48.37697" lon="2.51503">
        <ele>67.43</ele>
        <time>2011-05-16T14:23:36Z</time>
      </trkpt>
      <trkpt lat="48.37707" lon="2.51518">
        <ele>67.195</ele>
        <time>2011-05-16T14:23:47Z</time>
      </trkpt>
      <trkpt lat="48.37718" lon="2.51533">
        <ele>66.959999</ele>
        <time>2011-05-16T14:23:59Z</time>
      </trkpt>
      <trkpt lat="48.37727" lon="2.5155">
        <ele>66.760002</ele>
        <time>2011-05-16T14:24:10Z</time>
      </trkpt>
      <trkpt lat="48.37737" lon="2.51565">
        <ele>66.525002</ele>
        <time>2011-05-16T14:24:22Z</time>
      </trkpt>
      <trkpt lat="48.37752" lon="2.51592">
        <ele>67.003036</ele>
        <time>2011-05-16T14:24:40Z</time>
      </trkpt>
      <trkpt lat="48.37764" lon="2.51608">
        <ele>67.183876</ele>
        <time>2011-05-16T14:24:52Z</time>
      </trkpt>
      <trkpt lat="48.37775" lon="2.51628">
        <ele>67.527336</ele>
        <time>2011-05-16T14:25:05Z</time>
      </trkpt>
      <trkpt lat="48.37787" lon="2.51649">
        <ele>67.813301</ele>
        <time>2011-05-16T14:25:23Z</time>
      </trkpt>
      <trkpt lat="48.37796" lon="2.51665">
        <ele>67.878799</ele>
        <time>2011-05-16T14:25:35Z</time>
      </trkpt>
      <trkpt lat="48.37808" lon="2.51683">
        <ele>67.678749</ele>
        <time>2011-05-16T14:25:48Z</time>
      </trkpt>
      <trkpt lat="48.37818" lon="2.51697">
        <ele>67.643753</ele>
        <time>2011-05-16T14:25:59Z</time>
      </trkpt>
      <trkpt lat="48.3783" lon="2.51712">
        <ele>67.725502</ele>
        <time>2011-05-16T14:26:11Z</time>
      </trkpt>
      <trkpt lat="48.37841" lon="2.51728">
        <ele>67.781601</ele>
        <time>2011-05-16T14:26:24Z</time>
      </trkpt>
      <trkpt lat="48.37851" lon="2.51742">
        <ele>67.573753</ele>
        <time>2011-05-16T14:26:36Z</time>
      </trkpt>
      <trkpt lat="48.37862" lon="2.51755">
        <ele>67.53875</ele>
        <time>2011-05-16T14:26:46Z</time>
      </trkpt>
      <trkpt lat="48.37871" lon="2.51772">
        <ele>67.671875</ele>
        <time>2011-05-16T14:26:57Z</time>
      </trkpt>
      <trkpt lat="48.37881" lon="2.51785">
        <ele>67.913689</ele>
        <time>2011-05-16T14:27:07Z</time>
      </trkpt>
      <trkpt lat="48.3789" lon="2.51803">
        <ele>67.900528</ele>
        <time>2011-05-16T14:27:19Z</time>
      </trkpt>
      <trkpt lat="48.37901" lon="2.51818">
        <ele>67.3936</ele>
        <time>2011-05-16T14:27:30Z</time>
      </trkpt>
      <trkpt lat="48.37911" lon="2.51832">
        <ele>66.8834</ele>
        <time>2011-05-16T14:27:40Z</time>
      </trkpt>
      <trkpt lat="48.37923" lon="2.51845">
        <ele>66.213623</ele>
        <time>2011-05-16T14:27:52Z</time>
      </trkpt>
      <trkpt lat="48.37934" lon="2.5186">
        <ele>65.726768</ele>
        <time>2011-05-16T14:28:03Z</time>
      </trkpt>
      <trkpt lat="48.37944" lon="2.51877">
        <ele>65.532349</ele>
        <time>2011-05-16T14:28:15Z</time>
      </trkpt>
      <trkpt lat="48.37953" lon="2.51895">
        <ele>65.604385</ele>
        <time>2011-05-16T14:28:28Z</time>
      </trkpt>
      <trkpt lat="48.37964" lon="2.51911">
        <ele>65.57</ele>
        <time>2011-05-16T14:28:39Z</time>
      </trkpt>
      <trkpt lat="48.37973" lon="2.51928">
        <ele>65.613747</ele>
        <time>2011-05-16T14:28:50Z</time>
      </trkpt>
      <trkpt lat="48.37983" lon="2.51941">
        <ele>65.578751</ele>
        <time>2011-05-16T14:29:01Z</time>
      </trkpt>
      <trkpt lat="48.37994" lon="2.51958">
        <ele>65.824913</ele>
        <time>2011-05-16T14:29:12Z</time>
      </trkpt>
      <trkpt lat="48.38006" lon="2.51971">
        <ele>65.990547</ele>
        <time>2011-05-16T14:29:25Z</time>
      </trkpt>
      <trkpt lat="48.38016" lon="2.51985">
        <ele>66.055283</ele>
        <time>2011-05-16T14:29:37Z</time>
      </trkpt>
      <trkpt lat="48.38027" lon="2.52001">
        <ele>66.029747</ele>
        <time>2011-05-16T14:29:49Z</time>
      </trkpt>
      <trkpt lat="48.38036" lon="2.52018">
        <ele>65.912903</ele>
        <time>2011-05-16T14:29:59Z</time>
      </trkpt>
      <trkpt lat="48.38046" lon="2.52033">
        <ele>65.67469</ele>
        <time>2011-05-16T14:30:11Z</time>
      </trkpt>
      <trkpt lat="48.38057" lon="2.52049">
        <ele>65.400002</ele>
        <time>2011-05-16T14:30:23Z</time>
      </trkpt>
      <trkpt lat="48.38067" lon="2.52066">
        <ele>65.169998</ele>
        <time>2011-05-16T14:30:35Z</time>
      </trkpt>
      <trkpt lat="48.38078" lon="2.52082">
        <ele>65</ele>
        <time>2011-05-16T14:30:47Z</time>
      </trkpt>
      <trkpt lat="48.3809" lon="2.52096">
        <ele>65</ele>
        <time>2011-05-16T14:30:58Z</time>
      </trkpt>
      <trkpt lat="48.381" lon="2.52111">
        <ele>65</ele>
        <time>2011-05-16T14:31:10Z</time>
      </trkpt>
      <trkpt lat="48.38111" lon="2.52127">
        <ele>65</ele>
        <time>2011-05-16T14:31:22Z</time>
      </trkpt>
      <trkpt lat="48.38123" lon="2.52142">
        <ele>65.07</ele>
        <time>2011-05-16T14:31:34Z</time>
      </trkpt>
      <trkpt lat="48.38133" lon="2.52159">
        <ele>65.305</ele>
        <time>2011-05-16T14:31:46Z</time>
      </trkpt>
      <trkpt lat="48.38144" lon="2.52174">
        <ele>65.540001</ele>
        <time>2011-05-16T14:31:57Z</time>
      </trkpt>
      <trkpt lat="48.38154" lon="2.52192">
        <ele>65.825775</ele>
        <time>2011-05-16T14:32:09Z</time>
      </trkpt>
      <trkpt lat="48.38163" lon="2.52208">
        <ele>65.98716</ele>
        <time>2011-05-16T14:32:20Z</time>
      </trkpt>
      <trkpt lat="48.38174" lon="2.52222">
        <ele>66.539146</ele>
        <time>2011-05-16T14:32:31Z</time>
      </trkpt>
      <trkpt lat="48.38183" lon="2.52238">
        <ele>66.877403</ele>
        <time>2011-05-16T14:32:42Z</time>
      </trkpt>
      <trkpt lat="48.38193" lon="2.52258">
        <ele>67.219101</ele>
        <time>2011-05-16T14:32:54Z</time>
      </trkpt>
      <trkpt lat="48.38201" lon="2.52276">
        <ele>67.320076</ele>
        <time>2011-05-16T14:33:05Z</time>
      </trkpt>
      <trkpt lat="48.38214" lon="2.523">
        <ele>67.469933</ele>
        <time>2011-05-16T14:33:22Z</time>
      </trkpt>
      <trkpt lat="48.38225" lon="2.52313">
        <ele>67.663261</ele>
        <time>2011-05-16T14:33:33Z</time>
      </trkpt>
      <trkpt lat="48.38235" lon="2.52328">
        <ele>67.858398</ele>
        <time>2011-05-16T14:33:45Z</time>
      </trkpt>
      <trkpt lat="48.38246" lon="2.52343">
        <ele>67.843529</ele>
        <time>2011-05-16T14:33:55Z</time>
      </trkpt>
      <trkpt lat="48.38256" lon="2.52358">
        <ele>67.645821</ele>
        <time>2011-05-16T14:34:05Z</time>
      </trkpt>
      <trkpt lat="48.38267" lon="2.52372">
        <ele>67.300301</ele>
        <time>2011-05-16T14:34:17Z</time>
      </trkpt>
      <trkpt lat="48.38277" lon="2.52388">
        <ele>67.075966</ele>
        <time>2011-05-16T14:34:29Z</time>
      </trkpt>
      <trkpt lat="48.38283" lon="2.52408">
        <ele>67.283562</ele>
        <time>2011-05-16T14:34:42Z</time>
      </trkpt>
      <trkpt lat="48.38283" lon="2.52433">
        <ele>67.528938</ele>
        <time>2011-05-16T14:34:59Z</time>
      </trkpt>
      <trkpt lat="48.38285" lon="2.52456">
        <ele>67.87896</ele>
        <time>2011-05-16T14:35:12Z</time>
      </trkpt>
      <trkpt lat="48.38289" lon="2.52477">
        <ele>68.340866</ele>
        <time>2011-05-16T14:35:24Z</time>
      </trkpt>
      <trkpt lat="48.38292" lon="2.52498">
        <ele>68.735222</ele>
        <time>2011-05-16T14:35:34Z</time>
      </trkpt>
      <trkpt lat="48.38292" lon="2.52522">
        <ele>69.143127</ele>
        <time>2011-05-16T14:35:52Z</time>
      </trkpt>
      <trkpt lat="48.383" lon="2.5254">
        <ele>69.411247</ele>
        <time>2011-05-16T14:36:02Z</time>
      </trkpt>
      <trkpt lat="48.38306" lon="2.52565">
        <ele>69.923752</ele>
        <time>2011-05-16T14:36:19Z</time>
      </trkpt>
      <trkpt lat="48.38313" lon="2.52583">
        <ele>70.33725</ele>
        <time>2011-05-16T14:36:30Z</time>
      </trkpt>
      <trkpt lat="48.38321" lon="2.52606">
        <ele>70.497353</ele>
        <time>2011-05-16T14:36:47Z</time>
      </trkpt>
      <trkpt lat="48.3833" lon="2.52631">
        <ele>70.406898</ele>
        <time>2011-05-16T14:37:06Z</time>
      </trkpt>
      <trkpt lat="48.38334" lon="2.52654">
        <ele>70.188858</ele>
        <time>2011-05-16T14:37:23Z</time>
      </trkpt>
      <trkpt lat="48.38348" lon="2.5266">
        <ele>70.015793</ele>
        <time>2011-05-16T14:37:46Z</time>
      </trkpt>
      <trkpt lat="48.38361" lon="2.52654">
        <ele>70.030609</ele>
        <time>2011-05-16T14:37:59Z</time>
      </trkpt>
      <trkpt lat="48.38376" lon="2.52648">
        <ele>70.012497</ele>
        <time>2011-05-16T14:38:16Z</time>
      </trkpt>
      <trkpt lat="48.3839" lon="2.52657">
        <ele>70.169998</ele>
        <time>2011-05-16T14:38:34Z</time>
      </trkpt>
      <trkpt lat="48.38402" lon="2.5267">
        <ele>70.910004</ele>
        <time>2011-05-16T14:38:51Z</time>
      </trkpt>
      <trkpt lat="48.38408" lon="2.5269">
        <ele>71.467499</ele>
        <time>2011-05-16T14:39:14Z</time>
      </trkpt>
      <trkpt lat="48.38421" lon="2.52699">
        <ele>72.201248</ele>
        <time>2011-05-16T14:40:27Z</time>
      </trkpt>
      <trkpt lat="48.38408" lon="2.52696">
        <ele>71.557503</ele>
        <time>2011-05-16T14:44:18Z</time>
      </trkpt>
      <trkpt lat="48.38397" lon="2.52681">
        <ele>70.864998</ele>
        <time>2011-05-16T14:45:02Z</time>
      </trkpt>
      <trkpt lat="48.38384" lon="2.52678">
        <ele>70.385971</ele>
        <time>2011-05-16T14:45:19Z</time>
      </trkpt>
      <trkpt lat="48.3837" lon="2.5267">
        <ele>70.191147</ele>
        <time>2011-05-16T14:45:37Z</time>
      </trkpt>
      <trkpt lat="48.38357" lon="2.52663">
        <ele>70.062317</ele>
        <time>2011-05-16T14:45:57Z</time>
      </trkpt>
      <trkpt lat="48.38343" lon="2.52672">
        <ele>70.003273</ele>
        <time>2011-05-16T14:46:10Z</time>
      </trkpt>
      <trkpt lat="48.3834" lon="2.52693">
        <ele>70.02578</ele>
        <time>2011-05-16T14:46:21Z</time>
      </trkpt>
      <trkpt lat="48.38339" lon="2.52718">
        <ele>69.969795</ele>
        <time>2011-05-16T14:46:38Z</time>
      </trkpt>
      <trkpt lat="48.38339" lon="2.52741">
        <ele>69.671089</ele>
        <time>2011-05-16T14:46:51Z</time>
      </trkpt>
      <trkpt lat="48.38331" lon="2.52759">
        <ele>69.536453</ele>
        <time>2011-05-16T14:47:02Z</time>
      </trkpt>
      <trkpt lat="48.38322" lon="2.52777">
        <ele>69.522339</ele>
        <time>2011-05-16T14:47:19Z</time>
      </trkpt>
      <trkpt lat="48.38315" lon="2.52796">
        <ele>69.443748</ele>
        <time>2011-05-16T14:47:32Z</time>
      </trkpt>
      <trkpt lat="48.38301" lon="2.52796">
        <ele>69.7425</ele>
        <time>2011-05-16T14:54:10Z</time>
      </trkpt>
      <trkpt lat="48.38288" lon="2.52804">
        <ele>70.329872</ele>
        <time>2011-05-16T14:55:43Z</time>
      </trkpt>
      <trkpt lat="48.38301" lon="2.52801">
        <ele>69.676247</ele>
        <time>2011-05-16T14:56:23Z</time>
      </trkpt>
      <trkpt lat="48.38297" lon="2.52822">
        <ele>69.515053</ele>
        <time>2011-05-16T14:57:21Z</time>
      </trkpt>
      <trkpt lat="48.38312" lon="2.52811">
        <ele>69.286247</ele>
        <time>2011-05-16T14:57:38Z</time>
      </trkpt>
      <trkpt lat="48.38325" lon="2.52813">
        <ele>68.965004</ele>
        <time>2011-05-16T14:57:44Z</time>
      </trkpt>
      <trkpt lat="48.38315" lon="2.52826">
        <ele>68.998749</ele>
        <time>2011-05-16T14:57:50Z</time>
      </trkpt>
      <trkpt lat="48.383" lon="2.52826">
        <ele>69.333748</ele>
        <time>2011-05-16T14:57:53Z</time>
      </trkpt>
      <trkpt lat="48.38285" lon="2.52822">
        <ele>70.169518</ele>
        <time>2011-05-16T14:57:58Z</time>
      </trkpt>
      <trkpt lat="48.38285" lon="2.52801">
        <ele>70.575699</ele>
        <time>2011-05-16T14:58:35Z</time>
      </trkpt>
      <trkpt lat="48.38298" lon="2.52795">
        <ele>69.844147</ele>
        <time>2011-05-16T14:59:00Z</time>
      </trkpt>
      <trkpt lat="48.3831" lon="2.52805">
        <ele>69.410004</ele>
        <time>2011-05-16T14:59:10Z</time>
      </trkpt>
      <trkpt lat="48.38322" lon="2.52819">
        <ele>68.946251</ele>
        <time>2011-05-16T14:59:20Z</time>
      </trkpt>
      <trkpt lat="48.38333" lon="2.52805">
        <ele>68.911247</ele>
        <time>2011-05-16T14:59:42Z</time>
      </trkpt>
      <trkpt lat="48.38319" lon="2.52795">
        <ele>69.366249</ele>
        <time>2011-05-16T14:59:47Z</time>
      </trkpt>
      <trkpt lat="48.38306" lon="2.52796">
        <ele>69.643745</ele>
        <time>2011-05-16T14:59:57Z</time>
      </trkpt>
      <trkpt lat="48.38292" lon="2.52795">
        <ele>70.212051</ele>
        <time>2011-05-16T15:00:07Z</time>
      </trkpt>
      <trkpt lat="48.38306" lon="2.52796">
        <ele>69.643745</ele>
        <time>2011-05-16T15:01:27Z</time>
      </trkpt>
      <trkpt lat="48.38319" lon="2.52792">
        <ele>69.411247</ele>
        <time>2011-05-16T15:02:00Z</time>
      </trkpt>
      <trkpt lat="48.38306" lon="2.52796">
        <ele>69.643745</ele>
        <time>2011-05-16T15:02:47Z</time>
      </trkpt>
      <trkpt lat="48.38294" lon="2.52783">
        <ele>70.315002</ele>
        <time>2011-05-16T15:06:52Z</time>
      </trkpt>
      <trkpt lat="48.38279" lon="2.52787">
        <ele>71.218903</ele>
        <time>2011-05-16T15:06:56Z</time>
      </trkpt>
      <trkpt lat="48.38265" lon="2.5279">
        <ele>72.0373</ele>
        <time>2011-05-16T15:07:01Z</time>
      </trkpt>
      <trkpt lat="48.3828" lon="2.52792">
        <ele>71.037621</ele>
        <time>2011-05-16T15:07:18Z</time>
      </trkpt>
      <trkpt lat="48.38292" lon="2.52781">
        <ele>70.404999</ele>
        <time>2011-05-16T15:08:09Z</time>
      </trkpt>
      <trkpt lat="48.38283" lon="2.52765">
        <ele>71.019997</ele>
        <time>2011-05-16T15:11:19Z</time>
      </trkpt>
      <trkpt lat="48.38289" lon="2.52789">
        <ele>70.517097</ele>
        <time>2011-05-16T15:11:36Z</time>
      </trkpt>
      <trkpt lat="48.38303" lon="2.52792">
        <ele>69.779999</ele>
        <time>2011-05-16T15:15:05Z</time>
      </trkpt>
      <trkpt lat="48.38289" lon="2.52798">
        <ele>70.355927</ele>
        <time>2011-05-16T15:19:55Z</time>
      </trkpt>
      <trkpt lat="48.383" lon="2.52784">
        <ele>69.956253</ele>
        <time>2011-05-16T15:22:40Z</time>
      </trkpt>
      <trkpt lat="48.38286" lon="2.5279">
        <ele>70.678238</ele>
        <time>2011-05-16T15:22:59Z</time>
      </trkpt>
      <trkpt lat="48.38273" lon="2.52792">
        <ele>71.511787</ele>
        <time>2011-05-16T15:23:25Z</time>
      </trkpt>
      <trkpt lat="48.38259" lon="2.52796">
        <ele>72.247688</ele>
        <time>2011-05-16T15:24:01Z</time>
      </trkpt>
      <trkpt lat="48.38247" lon="2.52784">
        <ele>73.387451</ele>
        <time>2011-05-16T15:30:05Z</time>
      </trkpt>
      <trkpt lat="48.38235" lon="2.52796">
        <ele>73.903976</ele>
        <time>2011-05-16T15:31:00Z</time>
      </trkpt>
      <trkpt lat="48.38249" lon="2.52784">
        <ele>73.281837</ele>
        <time>2011-05-16T15:31:34Z</time>
      </trkpt>
      <trkpt lat="48.38232" lon="2.52787">
        <ele>74.314377</ele>
        <time>2011-05-16T15:32:09Z</time>
      </trkpt>
      <trkpt lat="48.38219" lon="2.52796">
        <ele>75.068611</ele>
        <time>2011-05-16T15:32:28Z</time>
      </trkpt>
      <trkpt lat="48.38205" lon="2.52802">
        <ele>75.963821</ele>
        <time>2011-05-16T15:32:52Z</time>
      </trkpt>
      <trkpt lat="48.38219" lon="2.52798">
        <ele>75.040939</ele>
        <time>2011-05-16T15:33:11Z</time>
      </trkpt>
      <trkpt lat="48.38232" lon="2.5279">
        <ele>74.247437</ele>
        <time>2011-05-16T15:33:43Z</time>
      </trkpt>
      <trkpt lat="48.38222" lon="2.52804">
        <ele>74.716789</ele>
        <time>2011-05-16T15:35:28Z</time>
      </trkpt>
      <trkpt lat="48.38235" lon="2.52808">
        <ele>73.618866</ele>
        <time>2011-05-16T15:40:26Z</time>
      </trkpt>
      <trkpt lat="48.38228" lon="2.5279">
        <ele>74.556274</ele>
        <time>2011-05-16T15:55:34Z</time>
      </trkpt>
      <trkpt lat="48.38241" lon="2.52786">
        <ele>73.740799</ele>
        <time>2011-05-16T15:59:05Z</time>
      </trkpt>
      <trkpt lat="48.38228" lon="2.5279">
        <ele>74.556274</ele>
        <time>2011-05-16T16:06:07Z</time>
      </trkpt>
      <trkpt lat="48.38241" lon="2.5279">
        <ele>73.62619</ele>
        <time>2011-05-16T16:08:59Z</time>
      </trkpt>
      <trkpt lat="48.38255" lon="2.52795">
        <ele>72.570175</ele>
        <time>2011-05-16T16:09:11Z</time>
      </trkpt>
      <trkpt lat="48.3827" lon="2.52799">
        <ele>71.516685</ele>
        <time>2011-05-16T16:09:29Z</time>
      </trkpt>
      <trkpt lat="48.38283" lon="2.52801">
        <ele>70.657898</ele>
        <time>2011-05-16T16:09:41Z</time>
      </trkpt>
      <trkpt lat="48.38297" lon="2.52801">
        <ele>69.837196</ele>
        <time>2011-05-16T16:09:53Z</time>
      </trkpt>
      <trkpt lat="48.38307" lon="2.52787">
        <ele>69.746254</ele>
        <time>2011-05-16T16:10:11Z</time>
      </trkpt>
      <trkpt lat="48.38318" lon="2.52772">
        <ele>69.640953</ele>
        <time>2011-05-16T16:10:24Z</time>
      </trkpt>
      <trkpt lat="48.38327" lon="2.52753">
        <ele>69.655861</ele>
        <time>2011-05-16T16:10:41Z</time>
      </trkpt>
      <trkpt lat="48.38336" lon="2.52736">
        <ele>69.749962</ele>
        <time>2011-05-16T16:10:52Z</time>
      </trkpt>
      <trkpt lat="48.38343" lon="2.52718">
        <ele>69.966415</ele>
        <time>2011-05-16T16:11:02Z</time>
      </trkpt>
      <trkpt lat="48.38337" lon="2.52699">
        <ele>70.035698</ele>
        <time>2011-05-16T16:11:15Z</time>
      </trkpt>
      <trkpt lat="48.38342" lon="2.52678">
        <ele>70.022652</ele>
        <time>2011-05-16T16:11:27Z</time>
      </trkpt>
      <trkpt lat="48.38342" lon="2.52652">
        <ele>70.03775</ele>
        <time>2011-05-16T16:11:44Z</time>
      </trkpt>
      <trkpt lat="48.3834" lon="2.52627">
        <ele>70.348061</ele>
        <time>2011-05-16T16:12:01Z</time>
      </trkpt>
      <trkpt lat="48.38334" lon="2.52607">
        <ele>70.563797</ele>
        <time>2011-05-16T16:12:11Z</time>
      </trkpt>
      <trkpt lat="48.38327" lon="2.52589">
        <ele>70.594063</ele>
        <time>2011-05-16T16:12:24Z</time>
      </trkpt>
      <trkpt lat="48.38318" lon="2.52573">
        <ele>70.303749</ele>
        <time>2011-05-16T16:12:36Z</time>
      </trkpt>
      <trkpt lat="48.38312" lon="2.52544">
        <ele>69.747498</ele>
        <time>2011-05-16T16:12:54Z</time>
      </trkpt>
      <trkpt lat="48.38304" lon="2.52526">
        <ele>69.311249</ele>
        <time>2011-05-16T16:13:06Z</time>
      </trkpt>
      <trkpt lat="48.38292" lon="2.5251">
        <ele>68.939888</ele>
        <time>2011-05-16T16:13:14Z</time>
      </trkpt>
      <trkpt lat="48.38294" lon="2.52484">
        <ele>68.519157</ele>
        <time>2011-05-16T16:13:31Z</time>
      </trkpt>
      <trkpt lat="48.38298" lon="2.52465">
        <ele>68.269203</ele>
        <time>2011-05-16T16:13:44Z</time>
      </trkpt>
      <trkpt lat="48.38307" lon="2.52448">
        <ele>68.041473</ele>
        <time>2011-05-16T16:13:57Z</time>
      </trkpt>
      <trkpt lat="48.38324" lon="2.52438">
        <ele>67.945435</ele>
        <time>2011-05-16T16:14:14Z</time>
      </trkpt>
      <trkpt lat="48.38337" lon="2.52433">
        <ele>67.971687</ele>
        <time>2011-05-16T16:14:25Z</time>
      </trkpt>
      <trkpt lat="48.38351" lon="2.52435">
        <ele>68.250504</ele>
        <time>2011-05-16T16:14:34Z</time>
      </trkpt>
      <trkpt lat="48.38364" lon="2.52438">
        <ele>68.672752</ele>
        <time>2011-05-16T16:14:47Z</time>
      </trkpt>
      <trkpt lat="48.38378" lon="2.52445">
        <ele>68.796524</ele>
        <time>2011-05-16T16:14:56Z</time>
      </trkpt>
      <trkpt lat="48.38393" lon="2.52454">
        <ele>69.407501</ele>
        <time>2011-05-16T16:15:13Z</time>
      </trkpt>
      <trkpt lat="48.38406" lon="2.52457">
        <ele>70.095001</ele>
        <time>2011-05-16T16:15:24Z</time>
      </trkpt>
      <trkpt lat="48.3842" lon="2.52465">
        <ele>70.927498</ele>
        <time>2011-05-16T16:15:34Z</time>
      </trkpt>
      <trkpt lat="48.38433" lon="2.52469">
        <ele>71.657501</ele>
        <time>2011-05-16T16:15:44Z</time>
      </trkpt>
      <trkpt lat="48.38447" lon="2.52472">
        <ele>72.677773</ele>
        <time>2011-05-16T16:15:55Z</time>
      </trkpt>
      <trkpt lat="48.3846" lon="2.52478">
        <ele>73.956612</ele>
        <time>2011-05-16T16:16:07Z</time>
      </trkpt>
      <trkpt lat="48.38478" lon="2.52475">
        <ele>75.098465</ele>
        <time>2011-05-16T16:16:24Z</time>
      </trkpt>
      <trkpt lat="48.38496" lon="2.52469">
        <ele>75.464661</ele>
        <time>2011-05-16T16:16:41Z</time>
      </trkpt>
      <trkpt lat="48.3851" lon="2.52463">
        <ele>75.430984</ele>
        <time>2011-05-16T16:16:53Z</time>
      </trkpt>
      <trkpt lat="48.38523" lon="2.52462">
        <ele>75.773285</ele>
        <time>2011-05-16T16:17:05Z</time>
      </trkpt>
      <trkpt lat="48.38543" lon="2.52457">
        <ele>75.183594</ele>
        <time>2011-05-16T16:17:22Z</time>
      </trkpt>
      <trkpt lat="48.38556" lon="2.52457">
        <ele>75.127625</ele>
        <time>2011-05-16T16:17:33Z</time>
      </trkpt>
      <trkpt lat="48.38573" lon="2.52457">
        <ele>75.020897</ele>
        <time>2011-05-16T16:17:46Z</time>
      </trkpt>
      <trkpt lat="48.38586" lon="2.52453">
        <ele>74.4692</ele>
        <time>2011-05-16T16:17:58Z</time>
      </trkpt>
      <trkpt lat="48.386" lon="2.5245">
        <ele>74.174896</ele>
        <time>2011-05-16T16:18:08Z</time>
      </trkpt>
      <trkpt lat="48.3861" lon="2.52436">
        <ele>74</ele>
        <time>2011-05-16T16:18:20Z</time>
      </trkpt>
      <trkpt lat="48.38624" lon="2.52433">
        <ele>73.954155</ele>
        <time>2011-05-16T16:18:30Z</time>
      </trkpt>
      <trkpt lat="48.38639" lon="2.52429">
        <ele>73.848099</ele>
        <time>2011-05-16T16:18:40Z</time>
      </trkpt>
      <trkpt lat="48.38648" lon="2.52411">
        <ele>73.590553</ele>
        <time>2011-05-16T16:19:01Z</time>
      </trkpt>
      <trkpt lat="48.38652" lon="2.52391">
        <ele>73.292488</ele>
        <time>2011-05-16T16:19:12Z</time>
      </trkpt>
      <trkpt lat="48.38648" lon="2.5237">
        <ele>73.242226</ele>
        <time>2011-05-16T16:19:38Z</time>
      </trkpt>
      <trkpt lat="48.38634" lon="2.52361">
        <ele>73.865074</ele>
        <time>2011-05-16T16:20:05Z</time>
      </trkpt>
      <trkpt lat="48.38648" lon="2.52367">
        <ele>73.241325</ele>
        <time>2011-05-16T16:20:48Z</time>
      </trkpt>
      <trkpt lat="48.38664" lon="2.52369">
        <ele>73.107811</ele>
        <time>2011-05-16T16:21:05Z</time>
      </trkpt>
      <trkpt lat="48.38676" lon="2.52358">
        <ele>73.585564</ele>
        <time>2011-05-16T16:21:18Z</time>
      </trkpt>
      <trkpt lat="48.38684" lon="2.5234">
        <ele>73.849678</ele>
        <time>2011-05-16T16:21:30Z</time>
      </trkpt>
      <trkpt lat="48.38678" lon="2.52321">
        <ele>73.333229</ele>
        <time>2011-05-16T16:21:42Z</time>
      </trkpt>
      <trkpt lat="48.38663" lon="2.52316">
        <ele>72.3246</ele>
        <time>2011-05-16T16:21:54Z</time>
      </trkpt>
      <trkpt lat="48.38649" lon="2.52315">
        <ele>73.056198</ele>
        <time>2011-05-16T16:22:16Z</time>
      </trkpt>
      <trkpt lat="48.38636" lon="2.5231">
        <ele>74.547501</ele>
        <time>2011-05-16T16:22:29Z</time>
      </trkpt>
      <trkpt lat="48.38622" lon="2.52313">
        <ele>76.035454</ele>
        <time>2011-05-16T16:23:06Z</time>
      </trkpt>
      <trkpt lat="48.38609" lon="2.52318">
        <ele>77.692024</ele>
        <time>2011-05-16T16:23:27Z</time>
      </trkpt>
      <trkpt lat="48.38595" lon="2.5231">
        <ele>80.741127</ele>
        <time>2011-05-16T16:23:53Z</time>
      </trkpt>
      <trkpt lat="48.38583" lon="2.523">
        <ele>83.307198</ele>
        <time>2011-05-16T16:24:22Z</time>
      </trkpt>
      <trkpt lat="48.3857" lon="2.52294">
        <ele>86.341377</ele>
        <time>2011-05-16T16:24:42Z</time>
      </trkpt>
      <trkpt lat="48.38558" lon="2.52304">
        <ele>87.643753</ele>
        <time>2011-05-16T16:25:17Z</time>
      </trkpt>
      <trkpt lat="48.38544" lon="2.52312">
        <ele>88.75</ele>
        <time>2011-05-16T16:25:44Z</time>
      </trkpt>
      <trkpt lat="48.38531" lon="2.52312">
        <ele>90.25</ele>
        <time>2011-05-16T16:26:24Z</time>
      </trkpt>
      <trkpt lat="48.38517" lon="2.52313">
        <ele>92.078438</ele>
        <time>2011-05-16T16:26:58Z</time>
      </trkpt>
      <trkpt lat="48.38502" lon="2.52322">
        <ele>92.744499</ele>
        <time>2011-05-16T16:27:42Z</time>
      </trkpt>
      <trkpt lat="48.38489" lon="2.52325">
        <ele>94.567749</ele>
        <time>2011-05-16T16:27:52Z</time>
      </trkpt>
      <trkpt lat="48.38475" lon="2.52324">
        <ele>96.750504</ele>
        <time>2011-05-16T16:28:50Z</time>
      </trkpt>
      <trkpt lat="48.38463" lon="2.52313">
        <ele>99.05925</ele>
        <time>2011-05-16T16:31:40Z</time>
      </trkpt>
      <trkpt lat="48.3845" lon="2.52309">
        <ele>98.758003</ele>
        <time>2011-05-16T16:32:14Z</time>
      </trkpt>
      <trkpt lat="48.38438" lon="2.52298">
        <ele>99.223198</ele>
        <time>2011-05-16T16:32:49Z</time>
      </trkpt>
      <trkpt lat="48.38424" lon="2.523">
        <ele>95.374825</ele>
        <time>2011-05-16T16:34:16Z</time>
      </trkpt>
      <trkpt lat="48.38415" lon="2.52283">
        <ele>94.687675</ele>
        <time>2011-05-16T16:34:58Z</time>
      </trkpt>
      <trkpt lat="48.38405" lon="2.52268">
        <ele>93.132439</ele>
        <time>2011-05-16T16:35:32Z</time>
      </trkpt>
      <trkpt lat="48.38408" lon="2.52247">
        <ele>97.157478</ele>
        <time>2011-05-16T16:36:26Z</time>
      </trkpt>
      <trkpt lat="48.38405" lon="2.52226">
        <ele>98.4375</ele>
        <time>2011-05-16T16:36:53Z</time>
      </trkpt>
      <trkpt lat="48.38396" lon="2.5221">
        <ele>99.553902</ele>
        <time>2011-05-16T16:37:43Z</time>
      </trkpt>
      <trkpt lat="48.38385" lon="2.52195">
        <ele>102.996086</ele>
        <time>2011-05-16T16:38:15Z</time>
      </trkpt>
      <trkpt lat="48.3837" lon="2.52204">
        <ele>102.044975</ele>
        <time>2011-05-16T16:38:32Z</time>
      </trkpt>
      <trkpt lat="48.38364" lon="2.52184">
        <ele>107.655197</ele>
        <time>2011-05-16T16:38:53Z</time>
      </trkpt>
      <trkpt lat="48.38367" lon="2.52154">
        <ele>110.571251</ele>
        <time>2011-05-16T16:39:10Z</time>
      </trkpt>
      <trkpt lat="48.38372" lon="2.52135">
        <ele>110.760567</ele>
        <time>2011-05-16T16:39:28Z</time>
      </trkpt>
      <trkpt lat="48.38382" lon="2.5212">
        <ele>109.307503</ele>
        <time>2011-05-16T16:39:39Z</time>
      </trkpt>
      <trkpt lat="48.38391" lon="2.52103">
        <ele>107.178246</ele>
        <time>2011-05-16T16:40:05Z</time>
      </trkpt>
      <trkpt lat="48.38399" lon="2.52085">
        <ele>104.185211</ele>
        <time>2011-05-16T16:40:38Z</time>
      </trkpt>
      <trkpt lat="48.38409" lon="2.5207">
        <ele>100.576851</ele>
        <time>2011-05-16T16:41:14Z</time>
      </trkpt>
      <trkpt lat="48.38421" lon="2.5206">
        <ele>96.954826</ele>
        <time>2011-05-16T16:41:36Z</time>
      </trkpt>
      <trkpt lat="48.38433" lon="2.52045">
        <ele>94.088562</ele>
        <time>2011-05-16T16:41:53Z</time>
      </trkpt>
      <trkpt lat="48.38441" lon="2.52027">
        <ele>93.298401</ele>
        <time>2011-05-16T16:42:13Z</time>
      </trkpt>
      <trkpt lat="48.38453" lon="2.52015">
        <ele>91.88221</ele>
        <time>2011-05-16T16:42:25Z</time>
      </trkpt>
      <trkpt lat="48.38462" lon="2.51998">
        <ele>91.182159</ele>
        <time>2011-05-16T16:43:19Z</time>
      </trkpt>
      <trkpt lat="48.38469" lon="2.51977">
        <ele>91.02935</ele>
        <time>2011-05-16T16:43:36Z</time>
      </trkpt>
      <trkpt lat="48.38475" lon="2.51958">
        <ele>91.237663</ele>
        <time>2011-05-16T16:43:49Z</time>
      </trkpt>
      <trkpt lat="48.38481" lon="2.51938">
        <ele>91.932503</ele>
        <time>2011-05-16T16:44:11Z</time>
      </trkpt>
      <trkpt lat="48.38478" lon="2.51917">
        <ele>93.292526</ele>
        <time>2011-05-16T16:44:46Z</time>
      </trkpt>
      <trkpt lat="48.38475" lon="2.51896">
        <ele>93.883682</ele>
        <time>2011-05-16T16:45:06Z</time>
      </trkpt>
      <trkpt lat="48.38478" lon="2.51875">
        <ele>94.76815</ele>
        <time>2011-05-16T16:45:25Z</time>
      </trkpt>
      <trkpt lat="48.38471" lon="2.51857">
        <ele>94.223747</ele>
        <time>2011-05-16T16:45:49Z</time>
      </trkpt>
      <trkpt lat="48.38463" lon="2.51839">
        <ele>93.442741</ele>
        <time>2011-05-16T16:46:06Z</time>
      </trkpt>
      <trkpt lat="48.3845" lon="2.51835">
        <ele>90.920105</ele>
        <time>2011-05-16T16:46:34Z</time>
      </trkpt>
      <trkpt lat="48.38439" lon="2.51821">
        <ele>87.888748</ele>
        <time>2011-05-16T16:46:56Z</time>
      </trkpt>
      <trkpt lat="48.38427" lon="2.51808">
        <ele>84.874252</ele>
        <time>2011-05-16T16:47:07Z</time>
      </trkpt>
      <trkpt lat="48.38415" lon="2.51793">
        <ele>82.518341</ele>
        <time>2011-05-16T16:47:20Z</time>
      </trkpt>
      <trkpt lat="48.38403" lon="2.51779">
        <ele>80.91201</ele>
        <time>2011-05-16T16:47:37Z</time>
      </trkpt>
      <trkpt lat="48.3839" lon="2.5177">
        <ele>80.031219</ele>
        <time>2011-05-16T16:48:15Z</time>
      </trkpt>
      <trkpt lat="48.38376" lon="2.51769">
        <ele>82.001564</ele>
        <time>2011-05-16T16:48:56Z</time>
      </trkpt>
      <trkpt lat="48.38364" lon="2.51781">
        <ele>82.997658</ele>
        <time>2011-05-16T16:49:32Z</time>
      </trkpt>
      <trkpt lat="48.38352" lon="2.51769">
        <ele>85.49675</ele>
        <time>2011-05-16T16:50:25Z</time>
      </trkpt>
      <trkpt lat="48.38339" lon="2.51761">
        <ele>89.275101</ele>
        <time>2011-05-16T16:50:58Z</time>
      </trkpt>
      <trkpt lat="48.3833" lon="2.51745">
        <ele>94.780846</ele>
        <time>2011-05-16T16:51:36Z</time>
      </trkpt>
      <trkpt lat="48.38318" lon="2.51734">
        <ele>99.750679</ele>
        <time>2011-05-16T16:52:26Z</time>
      </trkpt>
      <trkpt lat="48.38304" lon="2.51733">
        <ele>102.901848</ele>
        <time>2011-05-16T16:53:07Z</time>
      </trkpt>
      <trkpt lat="48.38301" lon="2.51712">
        <ele>109.433372</ele>
        <time>2011-05-16T16:56:04Z</time>
      </trkpt>
      <trkpt lat="48.38306" lon="2.51692">
        <ele>109.305939</ele>
        <time>2011-05-16T16:56:35Z</time>
      </trkpt>
      <trkpt lat="48.3831" lon="2.51673">
        <ele>106.333939</ele>
        <time>2011-05-16T16:57:13Z</time>
      </trkpt>
      <trkpt lat="48.38312" lon="2.51652">
        <ele>104.040535</ele>
        <time>2011-05-16T16:58:12Z</time>
      </trkpt>
      <trkpt lat="48.38321" lon="2.51635">
        <ele>101.890007</ele>
        <time>2011-05-16T16:58:47Z</time>
      </trkpt>
      <trkpt lat="48.38328" lon="2.51617">
        <ele>97.724998</ele>
        <time>2011-05-16T16:59:26Z</time>
      </trkpt>
      <trkpt lat="48.38334" lon="2.51598">
        <ele>93.370346</ele>
        <time>2011-05-16T16:59:43Z</time>
      </trkpt>
      <trkpt lat="48.38337" lon="2.51577">
        <ele>88.863876</ele>
        <time>2011-05-16T16:59:56Z</time>
      </trkpt>
      <trkpt lat="48.38343" lon="2.51557">
        <ele>87.724998</ele>
        <time>2011-05-16T17:00:19Z</time>
      </trkpt>
      <trkpt lat="48.38349" lon="2.51538">
        <ele>88.029999</ele>
        <time>2011-05-16T17:00:47Z</time>
      </trkpt>
      <trkpt lat="48.38355" lon="2.51518">
        <ele>88.014999</ele>
        <time>2011-05-16T17:01:14Z</time>
      </trkpt>
      <trkpt lat="48.38355" lon="2.51497">
        <ele>89.573204</ele>
        <time>2011-05-16T17:01:43Z</time>
      </trkpt>
      <trkpt lat="48.38352" lon="2.51476">
        <ele>93.046936</ele>
        <time>2011-05-16T17:01:56Z</time>
      </trkpt>
      <trkpt lat="48.38345" lon="2.51458">
        <ele>96.714249</ele>
        <time>2011-05-16T17:02:09Z</time>
      </trkpt>
      <trkpt lat="48.38339" lon="2.5143">
        <ele>99.332626</ele>
        <time>2011-05-16T17:02:27Z</time>
      </trkpt>
      <trkpt lat="48.38333" lon="2.5141">
        <ele>97.953072</ele>
        <time>2011-05-16T17:02:44Z</time>
      </trkpt>
      <trkpt lat="48.38325" lon="2.51391">
        <ele>96.677628</ele>
        <time>2011-05-16T17:03:01Z</time>
      </trkpt>
      <trkpt lat="48.38312" lon="2.51383">
        <ele>95.881248</ele>
        <time>2011-05-16T17:03:23Z</time>
      </trkpt>
      <trkpt lat="48.3831" lon="2.51362">
        <ele>94.709862</ele>
        <time>2011-05-16T17:03:51Z</time>
      </trkpt>
      <trkpt lat="48.383" lon="2.51343">
        <ele>91.738373</ele>
        <time>2011-05-16T17:04:08Z</time>
      </trkpt>
      <trkpt lat="48.38289" lon="2.51329">
        <ele>88.485222</ele>
        <time>2011-05-16T17:04:28Z</time>
      </trkpt>
      <trkpt lat="48.38279" lon="2.51316">
        <ele>85.710251</ele>
        <time>2011-05-16T17:04:51Z</time>
      </trkpt>
      <trkpt lat="48.38268" lon="2.51298">
        <ele>83.106049</ele>
        <time>2011-05-16T17:05:09Z</time>
      </trkpt>
      <trkpt lat="48.38258" lon="2.51281">
        <ele>82.344002</ele>
        <time>2011-05-16T17:05:28Z</time>
      </trkpt>
      <trkpt lat="48.38246" lon="2.51271">
        <ele>82.476501</ele>
        <time>2011-05-16T17:05:45Z</time>
      </trkpt>
      <trkpt lat="48.38234" lon="2.5126">
        <ele>83.315948</ele>
        <time>2011-05-16T17:06:08Z</time>
      </trkpt>
      <trkpt lat="48.3822" lon="2.51253">
        <ele>84.580147</ele>
        <time>2011-05-16T17:06:39Z</time>
      </trkpt>
      <trkpt lat="48.38207" lon="2.51251">
        <ele>85.995247</ele>
        <time>2011-05-16T17:07:15Z</time>
      </trkpt>
      <trkpt lat="48.38193" lon="2.51253">
        <ele>88.097496</ele>
        <time>2011-05-16T17:07:53Z</time>
      </trkpt>
      <trkpt lat="48.3818" lon="2.51256">
        <ele>89.707001</ele>
        <time>2011-05-16T17:08:32Z</time>
      </trkpt>
      <trkpt lat="48.38166" lon="2.51262">
        <ele>90.228004</ele>
        <time>2011-05-16T17:09:58Z</time>
      </trkpt>
      <trkpt lat="48.38153" lon="2.51263">
        <ele>92.497826</ele>
        <time>2011-05-16T17:10:29Z</time>
      </trkpt>
      <trkpt lat="48.38141" lon="2.51251">
        <ele>98.463402</ele>
        <time>2011-05-16T17:10:51Z</time>
      </trkpt>
      <trkpt lat="48.38127" lon="2.51244">
        <ele>103.559601</ele>
        <time>2011-05-16T17:12:44Z</time>
      </trkpt>
      <trkpt lat="48.38114" lon="2.51244">
        <ele>103.212952</ele>
        <time>2011-05-16T17:13:47Z</time>
      </trkpt>
      <trkpt lat="48.381" lon="2.51236">
        <ele>102.272301</ele>
        <time>2011-05-16T17:14:18Z</time>
      </trkpt>
      <trkpt lat="48.38087" lon="2.51236">
        <ele>99.025398</ele>
        <time>2011-05-16T17:15:09Z</time>
      </trkpt>
      <trkpt lat="48.38075" lon="2.51223">
        <ele>98.457298</ele>
        <time>2011-05-16T17:15:43Z</time>
      </trkpt>
      <trkpt lat="48.38075" lon="2.51202">
        <ele>101.022003</ele>
        <time>2011-05-16T17:16:21Z</time>
      </trkpt>
      <trkpt lat="48.3807" lon="2.51182">
        <ele>102.372299</ele>
        <time>2011-05-16T17:16:42Z</time>
      </trkpt>
      <trkpt lat="48.38058" lon="2.51172">
        <ele>101.330002</ele>
        <time>2011-05-16T17:17:01Z</time>
      </trkpt>
      <trkpt lat="48.38049" lon="2.51155">
        <ele>100.637497</ele>
        <time>2011-05-16T17:17:18Z</time>
      </trkpt>
      <trkpt lat="48.38037" lon="2.51143">
        <ele>98.398499</ele>
        <time>2011-05-16T17:17:36Z</time>
      </trkpt>
      <trkpt lat="48.38024" lon="2.51136">
        <ele>95.983002</ele>
        <time>2011-05-16T17:18:06Z</time>
      </trkpt>
      <trkpt lat="48.38015" lon="2.51119">
        <ele>95.380684</ele>
        <time>2011-05-16T17:18:26Z</time>
      </trkpt>
      <trkpt lat="48.38013" lon="2.51098">
        <ele>97.121002</ele>
        <time>2011-05-16T17:19:10Z</time>
      </trkpt>
      <trkpt lat="48.38003" lon="2.51085">
        <ele>98.097672</ele>
        <time>2011-05-16T17:19:31Z</time>
      </trkpt>
      <trkpt lat="48.37989" lon="2.51085">
        <ele>98.901321</ele>
        <time>2011-05-16T17:20:15Z</time>
      </trkpt>
      <trkpt lat="48.37976" lon="2.51082">
        <ele>95.912956</ele>
        <time>2011-05-16T17:20:46Z</time>
      </trkpt>
      <trkpt lat="48.37962" lon="2.51082">
        <ele>91.463165</ele>
        <time>2011-05-16T17:21:31Z</time>
      </trkpt>
      <trkpt lat="48.37949" lon="2.5108">
        <ele>87.188904</ele>
        <time>2011-05-16T17:22:12Z</time>
      </trkpt>
      <trkpt lat="48.37935" lon="2.5108">
        <ele>83.281876</ele>
        <time>2011-05-16T17:22:37Z</time>
      </trkpt>
      <trkpt lat="48.37922" lon="2.51082">
        <ele>79.816803</ele>
        <time>2011-05-16T17:23:00Z</time>
      </trkpt>
      <trkpt lat="48.37908" lon="2.51079">
        <ele>76.803299</ele>
        <time>2011-05-16T17:23:24Z</time>
      </trkpt>
      <trkpt lat="48.37893" lon="2.51083">
        <ele>73.299034</ele>
        <time>2011-05-16T17:23:41Z</time>
      </trkpt>
      <trkpt lat="48.37881" lon="2.511">
        <ele>71.006477</ele>
        <time>2011-05-16T17:23:58Z</time>
      </trkpt>
      <trkpt lat="48.37874" lon="2.51122">
        <ele>69.054863</ele>
        <time>2011-05-16T17:24:15Z</time>
      </trkpt>
      <trkpt lat="48.37866" lon="2.5114">
        <ele>67.635483</ele>
        <time>2011-05-16T17:24:27Z</time>
      </trkpt>
      <trkpt lat="48.3786" lon="2.5116">
        <ele>66.483704</ele>
        <time>2011-05-16T17:24:39Z</time>
      </trkpt>
      <trkpt lat="48.3785" lon="2.51175">
        <ele>66</ele>
        <time>2011-05-16T17:24:52Z</time>
      </trkpt>
      <trkpt lat="48.37838" lon="2.51187">
        <ele>66</ele>
        <time>2011-05-16T17:25:04Z</time>
      </trkpt>
      <trkpt lat="48.37826" lon="2.51197">
        <ele>66</ele>
        <time>2011-05-16T17:25:15Z</time>
      </trkpt>
      <trkpt lat="48.37814" lon="2.51208">
        <ele>66</ele>
        <time>2011-05-16T17:25:25Z</time>
      </trkpt>
      <trkpt lat="48.37803" lon="2.51221">
        <ele>66.122849</ele>
        <time>2011-05-16T17:25:38Z</time>
      </trkpt>
      <trkpt lat="48.37791" lon="2.51232">
        <ele>66.74881</ele>
        <time>2011-05-16T17:25:50Z</time>
      </trkpt>
      <trkpt lat="48.37781" lon="2.51256">
        <ele>68.142296</ele>
        <time>2011-05-16T17:26:07Z</time>
      </trkpt>
      <trkpt lat="48.3777" lon="2.51277">
        <ele>69.563499</ele>
        <time>2011-05-16T17:26:24Z</time>
      </trkpt>
      <trkpt lat="48.37757" lon="2.51292">
        <ele>70.8825</ele>
        <time>2011-05-16T17:26:41Z</time>
      </trkpt>
      <trkpt lat="48.37743" lon="2.51304">
        <ele>71.254753</ele>
        <time>2011-05-16T17:26:58Z</time>
      </trkpt>
      <trkpt lat="48.3773" lon="2.51299">
        <ele>71.636253</ele>
        <time>2011-05-16T17:27:10Z</time>
      </trkpt>
      <trkpt lat="48.37719" lon="2.51284">
        <ele>71.552971</ele>
        <time>2011-05-16T17:27:28Z</time>
      </trkpt>
      <trkpt lat="48.37706" lon="2.51269">
        <ele>70.673439</ele>
        <time>2011-05-16T17:27:45Z</time>
      </trkpt>
      <trkpt lat="48.37697" lon="2.51253">
        <ele>69.960503</ele>
        <time>2011-05-16T17:27:57Z</time>
      </trkpt>
      <trkpt lat="48.37683" lon="2.51251">
        <ele>69.430946</ele>
        <time>2011-05-16T17:28:09Z</time>
      </trkpt>
      <trkpt lat="48.3767" lon="2.51259">
        <ele>68.897598</ele>
        <time>2011-05-16T17:28:22Z</time>
      </trkpt>
      <trkpt lat="48.37656" lon="2.51269">
        <ele>68.182724</ele>
        <time>2011-05-16T17:28:35Z</time>
      </trkpt>
      <trkpt lat="48.37643" lon="2.51277">
        <ele>67.5336</ele>
        <time>2011-05-16T17:28:48Z</time>
      </trkpt>
      <trkpt lat="48.37629" lon="2.51274">
        <ele>66.803925</ele>
        <time>2011-05-16T17:29:00Z</time>
      </trkpt>
      <trkpt lat="48.3761" lon="2.51269">
        <ele>66.598747</ele>
        <time>2011-05-16T17:29:17Z</time>
      </trkpt>
      <trkpt lat="48.37599" lon="2.51283">
        <ele>66.798752</ele>
        <time>2011-05-16T17:29:29Z</time>
      </trkpt>
      <trkpt lat="48.37587" lon="2.51301">
        <ele>67.066254</ele>
        <time>2011-05-16T17:29:46Z</time>
      </trkpt>
      <trkpt lat="48.37577" lon="2.51328">
        <ele>67.62159</ele>
        <time>2011-05-16T17:30:03Z</time>
      </trkpt>
      <trkpt lat="48.37569" lon="2.5135">
        <ele>68.28759</ele>
        <time>2011-05-16T17:30:20Z</time>
      </trkpt>
      <trkpt lat="48.37556" lon="2.5137">
        <ele>69.283264</ele>
        <time>2011-05-16T17:30:37Z</time>
      </trkpt>
      <trkpt lat="48.37542" lon="2.51373">
        <ele>69.994789</ele>
        <time>2011-05-16T17:30:48Z</time>
      </trkpt>
      <trkpt lat="48.3753" lon="2.51383">
        <ele>71.434486</ele>
        <time>2011-05-16T17:31:06Z</time>
      </trkpt>
      <trkpt lat="48.37524" lon="2.51403">
        <ele>72.939438</ele>
        <time>2011-05-16T17:31:24Z</time>
      </trkpt>
      <trkpt lat="48.37512" lon="2.51415">
        <ele>75.136597</ele>
        <time>2011-05-16T17:31:48Z</time>
      </trkpt>
      <trkpt lat="48.37499" lon="2.51425">
        <ele>77.607567</ele>
        <time>2011-05-16T17:32:20Z</time>
      </trkpt>
      <trkpt lat="48.37485" lon="2.51422">
        <ele>79.140289</ele>
        <time>2011-05-16T17:32:39Z</time>
      </trkpt>
      <trkpt lat="48.37472" lon="2.51433">
        <ele>80.842491</ele>
        <time>2011-05-16T17:32:58Z</time>
      </trkpt>
      <trkpt lat="48.37457" lon="2.51437">
        <ele>82.390884</ele>
        <time>2011-05-16T17:33:15Z</time>
      </trkpt>
      <trkpt lat="48.37443" lon="2.51443">
        <ele>83.361786</ele>
        <time>2011-05-16T17:33:33Z</time>
      </trkpt>
      <trkpt lat="48.37434" lon="2.5146">
        <ele>83.600189</ele>
        <time>2011-05-16T17:33:50Z</time>
      </trkpt>
      <trkpt lat="48.37425" lon="2.51476">
        <ele>83.936584</ele>
        <time>2011-05-16T17:34:07Z</time>
      </trkpt>
      <trkpt lat="48.37413" lon="2.51493">
        <ele>84.23587</ele>
        <time>2011-05-16T17:34:24Z</time>
      </trkpt>
      <trkpt lat="48.37406" lon="2.51511">
        <ele>86.356247</ele>
        <time>2011-05-16T17:34:46Z</time>
      </trkpt>
      <trkpt lat="48.37413" lon="2.51529">
        <ele>89.387123</ele>
        <time>2011-05-16T17:35:06Z</time>
      </trkpt>
      <trkpt lat="48.37422" lon="2.51551">
        <ele>92.549065</ele>
        <time>2011-05-16T17:35:23Z</time>
      </trkpt>
      <trkpt lat="48.37431" lon="2.51568">
        <ele>94.317497</ele>
        <time>2011-05-16T17:35:34Z</time>
      </trkpt>
      <trkpt lat="48.37439" lon="2.51587">
        <ele>96.695</ele>
        <time>2011-05-16T17:35:54Z</time>
      </trkpt>
      <trkpt lat="48.37448" lon="2.51608">
        <ele>99.023315</ele>
        <time>2011-05-16T17:36:11Z</time>
      </trkpt>
      <trkpt lat="48.37457" lon="2.51625">
        <ele>99.693748</ele>
        <time>2011-05-16T17:36:28Z</time>
      </trkpt>
      <trkpt lat="48.37467" lon="2.51646">
        <ele>100.127762</ele>
        <time>2011-05-16T17:36:45Z</time>
      </trkpt>
      <trkpt lat="48.37476" lon="2.51662">
        <ele>100.706703</ele>
        <time>2011-05-16T17:37:07Z</time>
      </trkpt>
      <trkpt lat="48.37487" lon="2.5168">
        <ele>102.050743</ele>
        <time>2011-05-16T17:37:27Z</time>
      </trkpt>
      <trkpt lat="48.37497" lon="2.51697">
        <ele>101.7388</ele>
        <time>2011-05-16T17:37:44Z</time>
      </trkpt>
      <trkpt lat="48.37503" lon="2.51716">
        <ele>99.340378</ele>
        <time>2011-05-16T17:38:04Z</time>
      </trkpt>
      <trkpt lat="48.37505" lon="2.51737">
        <ele>98.159599</ele>
        <time>2011-05-16T17:38:29Z</time>
      </trkpt>
      <trkpt lat="48.375" lon="2.51757">
        <ele>99.219902</ele>
        <time>2011-05-16T17:38:42Z</time>
      </trkpt>
      <trkpt lat="48.37494" lon="2.51779">
        <ele>99.184998</ele>
        <time>2011-05-16T17:38:59Z</time>
      </trkpt>
      <trkpt lat="48.3749" lon="2.518">
        <ele>96.875595</ele>
        <time>2011-05-16T17:39:09Z</time>
      </trkpt>
      <trkpt lat="48.37485" lon="2.51824">
        <ele>93.348747</ele>
        <time>2011-05-16T17:39:26Z</time>
      </trkpt>
      <trkpt lat="48.37472" lon="2.51823">
        <ele>94.722466</ele>
        <time>2011-05-16T17:39:43Z</time>
      </trkpt>
      <trkpt lat="48.37457" lon="2.5182">
        <ele>96.427574</ele>
        <time>2011-05-16T17:40:00Z</time>
      </trkpt>
      <trkpt lat="48.37448" lon="2.518">
        <ele>100.09845</ele>
        <time>2011-05-16T17:40:17Z</time>
      </trkpt>
      <trkpt lat="48.37437" lon="2.51784">
        <ele>102.630821</ele>
        <time>2011-05-16T17:40:29Z</time>
      </trkpt>
      <trkpt lat="48.37422" lon="2.51767">
        <ele>105.022499</ele>
        <time>2011-05-16T17:40:46Z</time>
      </trkpt>
      <trkpt lat="48.37409" lon="2.51769">
        <ele>104.87822</ele>
        <time>2011-05-16T17:41:03Z</time>
      </trkpt>
      <trkpt lat="48.37395" lon="2.51775">
        <ele>103.136253</ele>
        <time>2011-05-16T17:41:16Z</time>
      </trkpt>
      <trkpt lat="48.37385" lon="2.51788">
        <ele>99.512497</ele>
        <time>2011-05-16T17:41:28Z</time>
      </trkpt>
      <trkpt lat="48.37373" lon="2.51799">
        <ele>96.217499</ele>
        <time>2011-05-16T17:41:50Z</time>
      </trkpt>
      <trkpt lat="48.37362" lon="2.51814">
        <ele>92.346252</ele>
        <time>2011-05-16T17:42:31Z</time>
      </trkpt>
      <trkpt lat="48.37349" lon="2.51818">
        <ele>89.282753</ele>
        <time>2011-05-16T17:42:59Z</time>
      </trkpt>
      <trkpt lat="48.3734" lon="2.51835">
        <ele>85.177498</ele>
        <time>2011-05-16T17:43:31Z</time>
      </trkpt>
      <trkpt lat="48.3734" lon="2.51856">
        <ele>83.009399</ele>
        <time>2011-05-16T17:43:49Z</time>
      </trkpt>
      <trkpt lat="48.3734" lon="2.51877">
        <ele>80.855553</ele>
        <time>2011-05-16T17:44:09Z</time>
      </trkpt>
      <trkpt lat="48.37338" lon="2.51904">
        <ele>77.981422</ele>
        <time>2011-05-16T17:44:26Z</time>
      </trkpt>
      <trkpt lat="48.37325" lon="2.51916">
        <ele>75.844101</ele>
        <time>2011-05-16T17:44:43Z</time>
      </trkpt>
      <trkpt lat="48.37313" lon="2.51926">
        <ele>74.139641</ele>
        <time>2011-05-16T17:44:56Z</time>
      </trkpt>
      <trkpt lat="48.37311" lon="2.51947">
        <ele>73.049248</ele>
        <time>2011-05-16T17:45:13Z</time>
      </trkpt>
      <trkpt lat="48.37322" lon="2.51968">
        <ele>72.830971</ele>
        <time>2011-05-16T17:45:30Z</time>
      </trkpt>
      <trkpt lat="48.37331" lon="2.51985">
        <ele>72.803215</ele>
        <time>2011-05-16T17:45:42Z</time>
      </trkpt>
      <trkpt lat="48.37341" lon="2.52">
        <ele>72.864151</ele>
        <time>2011-05-16T17:45:55Z</time>
      </trkpt>
      <trkpt lat="48.37356" lon="2.52012">
        <ele>73.172005</ele>
        <time>2011-05-16T17:46:12Z</time>
      </trkpt>
      <trkpt lat="48.3737" lon="2.52021">
        <ele>73.147896</ele>
        <time>2011-05-16T17:46:24Z</time>
      </trkpt>
      <trkpt lat="48.37383" lon="2.52028">
        <ele>73.125618</ele>
        <time>2011-05-16T17:46:36Z</time>
      </trkpt>
      <trkpt lat="48.37397" lon="2.52037">
        <ele>72.949257</ele>
        <time>2011-05-16T17:46:49Z</time>
      </trkpt>
      <trkpt lat="48.37416" lon="2.52049">
        <ele>72.721565</ele>
        <time>2011-05-16T17:47:07Z</time>
      </trkpt>
      <trkpt lat="48.37431" lon="2.52057">
        <ele>72.633446</ele>
        <time>2011-05-16T17:47:20Z</time>
      </trkpt>
      <trkpt lat="48.37448" lon="2.52064">
        <ele>72.641815</ele>
        <time>2011-05-16T17:47:38Z</time>
      </trkpt>
      <trkpt lat="48.37461" lon="2.52067">
        <ele>72.766121</ele>
        <time>2011-05-16T17:47:50Z</time>
      </trkpt>
      <trkpt lat="48.37475" lon="2.5207">
        <ele>72.864189</ele>
        <time>2011-05-16T17:48:03Z</time>
      </trkpt>
      <trkpt lat="48.37488" lon="2.52075">
        <ele>72.892128</ele>
        <time>2011-05-16T17:48:16Z</time>
      </trkpt>
      <trkpt lat="48.37505" lon="2.52078">
        <ele>73.015099</ele>
        <time>2011-05-16T17:48:33Z</time>
      </trkpt>
      <trkpt lat="48.37518" lon="2.52079">
        <ele>73.161652</ele>
        <time>2011-05-16T17:48:46Z</time>
      </trkpt>
      <trkpt lat="48.37527" lon="2.52063">
        <ele>73.57225</ele>
        <time>2011-05-16T17:49:04Z</time>
      </trkpt>
      <trkpt lat="48.37535" lon="2.52045">
        <ele>73.902306</ele>
        <time>2011-05-16T17:49:21Z</time>
      </trkpt>
      <trkpt lat="48.37544" lon="2.52025">
        <ele>74.54541</ele>
        <time>2011-05-16T17:49:40Z</time>
      </trkpt>
      <trkpt lat="48.37553" lon="2.52009">
        <ele>75.147331</ele>
        <time>2011-05-16T17:49:52Z</time>
      </trkpt>
      <trkpt lat="48.37563" lon="2.51992">
        <ele>75.627327</ele>
        <time>2011-05-16T17:50:09Z</time>
      </trkpt>
      <trkpt lat="48.37571" lon="2.5197">
        <ele>76.275024</ele>
        <time>2011-05-16T17:50:26Z</time>
      </trkpt>
      <trkpt lat="48.3758" lon="2.51943">
        <ele>77.283813</ele>
        <time>2011-05-16T17:50:45Z</time>
      </trkpt>
      <trkpt lat="48.37584" lon="2.51923">
        <ele>78.412773</ele>
        <time>2011-05-16T17:50:55Z</time>
      </trkpt>
      <trkpt lat="48.37593" lon="2.51899">
        <ele>80.10215</ele>
        <time>2011-05-16T17:51:14Z</time>
      </trkpt>
      <trkpt lat="48.37599" lon="2.51878">
        <ele>80.504372</ele>
        <time>2011-05-16T17:51:27Z</time>
      </trkpt>
      <trkpt lat="48.37602" lon="2.51854">
        <ele>80.569</ele>
        <time>2011-05-16T17:51:39Z</time>
      </trkpt>
      <trkpt lat="48.37607" lon="2.51827">
        <ele>80.325249</ele>
        <time>2011-05-16T17:51:56Z</time>
      </trkpt>
      <trkpt lat="48.3761" lon="2.51806">
        <ele>79.479172</ele>
        <time>2011-05-16T17:52:09Z</time>
      </trkpt>
      <trkpt lat="48.37614" lon="2.51779">
        <ele>78.290314</ele>
        <time>2011-05-16T17:52:26Z</time>
      </trkpt>
      <trkpt lat="48.37619" lon="2.51757">
        <ele>77.367523</ele>
        <time>2011-05-16T17:52:43Z</time>
      </trkpt>
      <trkpt lat="48.37623" lon="2.51736">
        <ele>76.532509</ele>
        <time>2011-05-16T17:52:55Z</time>
      </trkpt>
      <trkpt lat="48.37628" lon="2.51716">
        <ele>75.832542</ele>
        <time>2011-05-16T17:53:07Z</time>
      </trkpt>
      <trkpt lat="48.37634" lon="2.51697">
        <ele>75.275253</ele>
        <time>2011-05-16T17:53:20Z</time>
      </trkpt>
      <trkpt lat="48.37643" lon="2.51674">
        <ele>74.319374</ele>
        <time>2011-05-16T17:53:38Z</time>
      </trkpt>
      <trkpt lat="48.3765" lon="2.51652">
        <ele>72.8274</ele>
        <time>2011-05-16T17:53:55Z</time>
      </trkpt>
      <trkpt lat="48.3765" lon="2.51631">
        <ele>71.321251</ele>
        <time>2011-05-16T17:54:06Z</time>
      </trkpt>
      <trkpt lat="48.37655" lon="2.51605">
        <ele>70.088753</ele>
        <time>2011-05-16T17:54:23Z</time>
      </trkpt>
      <trkpt lat="48.37664" lon="2.51586">
        <ele>69.018753</ele>
        <time>2011-05-16T17:54:41Z</time>
      </trkpt>
      <trkpt lat="48.37671" lon="2.51568">
        <ele>68.055</ele>
        <time>2011-05-16T17:54:53Z</time>
      </trkpt>
      <trkpt lat="48.37676" lon="2.51548">
        <ele>67.894997</ele>
        <time>2011-05-16T17:55:04Z</time>
      </trkpt>
      <trkpt lat="48.37686" lon="2.51527">
        <ele>67.660004</ele>
        <time>2011-05-16T17:55:21Z</time>
      </trkpt>
      <trkpt lat="48.37691" lon="2.51508">
        <ele>67.559998</ele>
        <time>2011-05-16T17:55:29Z</time>
      </trkpt>
      <trkpt lat="48.37685" lon="2.51488">
        <ele>67.792603</ele>
        <time>2011-05-16T17:55:42Z</time>
      </trkpt>
      <trkpt lat="48.37674" lon="2.51467">
        <ele>67.995796</ele>
        <time>2011-05-16T17:55:59Z</time>
      </trkpt>
      <trkpt lat="48.37665" lon="2.51451">
        <ele>68</ele>
        <time>2011-05-16T17:56:09Z</time>
      </trkpt>
      <trkpt lat="48.37655" lon="2.51436">
        <ele>68</ele>
        <time>2011-05-16T17:56:20Z</time>
      </trkpt>
      <trkpt lat="48.37644" lon="2.51421">
        <ele>68</ele>
        <time>2011-05-16T17:56:32Z</time>
      </trkpt>
      <trkpt lat="48.37634" lon="2.51398">
        <ele>68</ele>
        <time>2011-05-16T17:56:49Z</time>
      </trkpt>
      <trkpt lat="48.37623" lon="2.51385">
        <ele>68.021698</ele>
        <time>2011-05-16T17:56:59Z</time>
      </trkpt>
      <trkpt lat="48.37613" lon="2.51362">
        <ele>67.97625</ele>
        <time>2011-05-16T17:57:16Z</time>
      </trkpt>
      <trkpt lat="48.37602" lon="2.51346">
        <ele>67.732498</ele>
        <time>2011-05-16T17:57:28Z</time>
      </trkpt>
      <trkpt lat="48.37589" lon="2.51323">
        <ele>67.400002</ele>
        <time>2011-05-16T17:57:45Z</time>
      </trkpt>
      <trkpt lat="48.37577" lon="2.51313">
        <ele>67.375725</ele>
        <time>2011-05-16T17:57:54Z</time>
      </trkpt>
      <trkpt lat="48.37572" lon="2.51293">
        <ele>67.161247</ele>
        <time>2011-05-16T17:58:07Z</time>
      </trkpt>
      <trkpt lat="48.3756" lon="2.51281">
        <ele>67.253746</ele>
        <time>2011-05-16T17:58:20Z</time>
      </trkpt>
      <trkpt lat="48.3755" lon="2.51268">
        <ele>67.285004</ele>
        <time>2011-05-16T17:58:31Z</time>
      </trkpt>
      <trkpt lat="48.37539" lon="2.51253">
        <ele>67.297501</ele>
        <time>2011-05-16T17:58:41Z</time>
      </trkpt>
      <trkpt lat="48.37529" lon="2.51232">
        <ele>67.239128</ele>
        <time>2011-05-16T17:58:58Z</time>
      </trkpt>
      <trkpt lat="48.37517" lon="2.5122">
        <ele>67.315002</ele>
        <time>2011-05-16T17:59:10Z</time>
      </trkpt>
      <trkpt lat="48.37503" lon="2.51217">
        <ele>67.571251</ele>
        <time>2011-05-16T17:59:18Z</time>
      </trkpt>
      <trkpt lat="48.3749" lon="2.51208">
        <ele>67.769966</ele>
        <time>2011-05-16T17:59:30Z</time>
      </trkpt>
      <trkpt lat="48.37476" lon="2.51191">
        <ele>67.94857</ele>
        <time>2011-05-16T17:59:47Z</time>
      </trkpt>
      <trkpt lat="48.37463" lon="2.51188">
        <ele>68.311226</ele>
        <time>2011-05-16T17:59:57Z</time>
      </trkpt>
      <trkpt lat="48.37449" lon="2.51184">
        <ele>68.6063</ele>
        <time>2011-05-16T18:00:06Z</time>
      </trkpt>
      <trkpt lat="48.37436" lon="2.51184">
        <ele>69.008301</ele>
        <time>2011-05-16T18:00:12Z</time>
      </trkpt>
      <trkpt lat="48.37421" lon="2.51184">
        <ele>69.460426</ele>
        <time>2011-05-16T18:00:24Z</time>
      </trkpt>
      <trkpt lat="48.37404" lon="2.51176">
        <ele>69.622353</ele>
        <time>2011-05-16T18:00:41Z</time>
      </trkpt>
      <trkpt lat="48.37392" lon="2.51166">
        <ele>69.440002</ele>
        <time>2011-05-16T18:00:54Z</time>
      </trkpt>
      <trkpt lat="48.37379" lon="2.51163">
        <ele>69.608749</ele>
        <time>2011-05-16T18:01:05Z</time>
      </trkpt>
      <trkpt lat="48.37365" lon="2.51161">
        <ele>69.845001</ele>
        <time>2011-05-16T18:01:16Z</time>
      </trkpt>
      <trkpt lat="48.37349" lon="2.51155">
        <ele>70.011047</ele>
        <time>2011-05-16T18:01:25Z</time>
      </trkpt>
      <trkpt lat="48.37337" lon="2.5114">
        <ele>69.714996</ele>
        <time>2011-05-16T18:01:45Z</time>
      </trkpt>
      <trkpt lat="48.37322" lon="2.51139">
        <ele>69.89032</ele>
        <time>2011-05-16T18:01:52Z</time>
      </trkpt>
      <trkpt lat="48.37308" lon="2.51133">
        <ele>70.090446</ele>
        <time>2011-05-16T18:02:03Z</time>
      </trkpt>
      <trkpt lat="48.37296" lon="2.51116">
        <ele>70.10231</ele>
        <time>2011-05-16T18:02:20Z</time>
      </trkpt>
      <trkpt lat="48.37289" lon="2.51092">
        <ele>69.030899</ele>
        <time>2011-05-16T18:02:38Z</time>
      </trkpt>
      <trkpt lat="48.3728" lon="2.51076">
        <ele>69.076401</ele>
        <time>2011-05-16T18:02:51Z</time>
      </trkpt>
      <trkpt lat="48.37272" lon="2.51056">
        <ele>68.811989</ele>
        <time>2011-05-16T18:03:01Z</time>
      </trkpt>
      <trkpt lat="48.37263" lon="2.5104">
        <ele>68.575211</ele>
        <time>2011-05-16T18:03:20Z</time>
      </trkpt>
    </trkseg>
  </trk>
</gpx>